sensor_id;sensor_type;location;lat;lon;timestamp;P1;durP1;ratioP1;P2;durP2;ratioP2
6356;SDS011;3211;53.452;-2.264;2022-12-16T00:01:04;66.43;;;32.38;;
6356;SDS011;3211;53.452;-2.264;2022-12-16T00:03:32;59.42;;;30.52;;
6356;SDS011;3211;53.452;-2.264;2022-12-16T00:05:59;72.95;;;37.50;;
6356;SDS011;3211;53.452;-2.264;2022-12-16T00:08:28;69.20;;;36.97;;
6356;SDS011;3211;53.452;-2.264;2022-12-16T00:10:57;67.50;;;39.28;;
6356;SDS011;3211;53.452;-2.264;2022-12-16T00:13:25;64.43;;;36.90;;
6356;SDS011;3211;53.452;-2.264;2022-12-16T00:15:52;71.63;;;36.92;;
6356;SDS011;3211;53.452;-2.264;2022-12-16T00:18:21;51.00;;;30.65;;
6356;SDS011;3211;53.452;-2.264;2022-12-16T00:20:49;58.58;;;33.75;;
6356;SDS011;3211;53.452;-2.264;2022-12-16T00:23:18;52.25;;;30.50;;
6356;SDS011;3211;53.452;-2.264;2022-12-16T00:25:45;47.13;;;30.45;;
6356;SDS011;3211;53.452;-2.264;2022-12-16T00:28:13;58.28;;;32.20;;
6356;SDS011;3211;53.452;-2.264;2022-12-16T00:30:42;49.00;;;29.95;;
6356;SDS011;3211;53.452;-2.264;2022-12-16T00:33:10;54.47;;;30.35;;
6356;SDS011;3211;53.452;-2.264;2022-12-16T00:35:38;52.42;;;31.17;;
6356;SDS011;3211;53.452;-2.264;2022-12-16T00:38:05;63.45;;;32.20;;
6356;SDS011;3211;53.452;-2.264;2022-12-16T00:40:32;50.45;;;29.48;;
6356;SDS011;3211;53.452;-2.264;2022-12-16T00:42:59;46.95;;;28.80;;
6356;SDS011;3211;53.452;-2.264;2022-12-16T00:45:26;56.40;;;28.77;;
6356;SDS011;3211;53.452;-2.264;2022-12-16T00:47:53;58.20;;;31.85;;
6356;SDS011;3211;53.452;-2.264;2022-12-16T00:50:20;52.25;;;30.15;;
6356;SDS011;3211;53.452;-2.264;2022-12-16T00:52:48;49.30;;;29.23;;
6356;SDS011;3211;53.452;-2.264;2022-12-16T00:55:16;55.67;;;30.38;;
6356;SDS011;3211;53.452;-2.264;2022-12-16T00:57:43;51.90;;;30.15;;
6356;SDS011;3211;53.452;-2.264;2022-12-16T01:00:11;64.18;;;31.83;;
6356;SDS011;3211;53.452;-2.264;2022-12-16T01:02:40;58.20;;;30.52;;
6356;SDS011;3211;53.452;-2.264;2022-12-16T01:05:09;53.10;;;29.70;;
6356;SDS011;3211;53.452;-2.264;2022-12-16T01:07:38;51.90;;;29.52;;
6356;SDS011;3211;53.452;-2.264;2022-12-16T01:10:07;50.10;;;28.45;;
6356;SDS011;3211;53.452;-2.264;2022-12-16T01:12:35;57.95;;;30.15;;
6356;SDS011;3211;53.452;-2.264;2022-12-16T01:15:03;55.90;;;28.85;;
6356;SDS011;3211;53.452;-2.264;2022-12-16T01:17:32;49.63;;;28.73;;
6356;SDS011;3211;53.452;-2.264;2022-12-16T01:20:00;51.05;;;30.00;;
6356;SDS011;3211;53.452;-2.264;2022-12-16T01:22:28;51.15;;;30.40;;
6356;SDS011;3211;53.452;-2.264;2022-12-16T01:24:56;51.67;;;30.60;;
6356;SDS011;3211;53.452;-2.264;2022-12-16T01:27:24;54.53;;;29.45;;
6356;SDS011;3211;53.452;-2.264;2022-12-16T01:29:51;56.55;;;32.50;;
6356;SDS011;3211;53.452;-2.264;2022-12-16T01:32:19;59.78;;;31.88;;
6356;SDS011;3211;53.452;-2.264;2022-12-16T01:34:48;53.10;;;29.83;;
6356;SDS011;3211;53.452;-2.264;2022-12-16T01:37:15;54.58;;;34.17;;
6356;SDS011;3211;53.452;-2.264;2022-12-16T01:39:42;49.88;;;29.85;;
6356;SDS011;3211;53.452;-2.264;2022-12-16T01:42:10;56.70;;;31.30;;
6356;SDS011;3211;53.452;-2.264;2022-12-16T01:44:42;52.78;;;30.73;;
6356;SDS011;3211;53.452;-2.264;2022-12-16T01:47:12;50.72;;;28.27;;
6356;SDS011;3211;53.452;-2.264;2022-12-16T01:49:42;57.15;;;28.33;;
6356;SDS011;3211;53.452;-2.264;2022-12-16T01:52:13;59.55;;;30.23;;
6356;SDS011;3211;53.452;-2.264;2022-12-16T01:54:45;54.53;;;29.02;;
6356;SDS011;3211;53.452;-2.264;2022-12-16T01:57:17;53.58;;;28.48;;
6356;SDS011;3211;53.452;-2.264;2022-12-16T01:59:48;48.90;;;30.15;;
6356;SDS011;3211;53.452;-2.264;2022-12-16T02:02:18;53.45;;;31.63;;
6356;SDS011;3211;53.452;-2.264;2022-12-16T02:04:46;56.55;;;31.25;;
6356;SDS011;3211;53.452;-2.264;2022-12-16T02:07:27;49.67;;;29.35;;
6356;SDS011;3211;53.452;-2.264;2022-12-16T02:09:54;45.65;;;28.60;;
6356;SDS011;3211;53.452;-2.264;2022-12-16T02:12:23;51.75;;;30.05;;
6356;SDS011;3211;53.452;-2.264;2022-12-16T02:15:09;51.67;;;29.80;;
6356;SDS011;3211;53.452;-2.264;2022-12-16T02:17:52;54.17;;;30.48;;
6356;SDS011;3211;53.452;-2.264;2022-12-16T02:20:32;54.50;;;28.90;;
6356;SDS011;3211;53.452;-2.264;2022-12-16T02:23:42;55.58;;;29.77;;
6356;SDS011;3211;53.452;-2.264;2022-12-16T02:26:31;53.92;;;30.80;;
6356;SDS011;3211;53.452;-2.264;2022-12-16T02:29:41;53.58;;;30.35;;
6356;SDS011;3211;53.452;-2.264;2022-12-16T02:32:32;46.63;;;27.83;;
6356;SDS011;3211;53.452;-2.264;2022-12-16T02:35:06;49.40;;;28.40;;
6356;SDS011;3211;53.452;-2.264;2022-12-16T02:37:37;52.22;;;30.55;;
6356;SDS011;3211;53.452;-2.264;2022-12-16T02:40:10;51.85;;;28.08;;
6356;SDS011;3211;53.452;-2.264;2022-12-16T02:42:47;53.80;;;29.80;;
6356;SDS011;3211;53.452;-2.264;2022-12-16T02:45:20;45.95;;;28.15;;
6356;SDS011;3211;53.452;-2.264;2022-12-16T02:47:52;55.70;;;30.10;;
6356;SDS011;3211;53.452;-2.264;2022-12-16T02:50:19;50.58;;;27.98;;
6356;SDS011;3211;53.452;-2.264;2022-12-16T02:52:48;50.97;;;29.92;;
6356;SDS011;3211;53.452;-2.264;2022-12-16T02:55:16;54.30;;;29.08;;
6356;SDS011;3211;53.452;-2.264;2022-12-16T02:57:47;46.35;;;27.38;;
6356;SDS011;3211;53.452;-2.264;2022-12-16T03:00:23;52.22;;;29.90;;
6356;SDS011;3211;53.452;-2.264;2022-12-16T03:02:56;50.38;;;26.38;;
6356;SDS011;3211;53.452;-2.264;2022-12-16T03:05:27;60.55;;;28.48;;
6356;SDS011;3211;53.452;-2.264;2022-12-16T03:07:56;59.15;;;28.60;;
6356;SDS011;3211;53.452;-2.264;2022-12-16T03:10:27;48.90;;;26.90;;
6356;SDS011;3211;53.452;-2.264;2022-12-16T03:12:56;45.90;;;26.73;;
6356;SDS011;3211;53.452;-2.264;2022-12-16T03:15:27;46.83;;;26.58;;
6356;SDS011;3211;53.452;-2.264;2022-12-16T03:17:59;41.22;;;24.50;;
6356;SDS011;3211;53.452;-2.264;2022-12-16T03:20:29;45.22;;;25.40;;
6356;SDS011;3211;53.452;-2.264;2022-12-16T03:23:05;44.72;;;26.25;;
6356;SDS011;3211;53.452;-2.264;2022-12-16T03:25:35;50.92;;;26.33;;
6356;SDS011;3211;53.452;-2.264;2022-12-16T03:28:09;44.90;;;24.08;;
6356;SDS011;3211;53.452;-2.264;2022-12-16T03:30:48;42.10;;;24.98;;
6356;SDS011;3211;53.452;-2.264;2022-12-16T03:33:21;41.15;;;24.73;;
6356;SDS011;3211;53.452;-2.264;2022-12-16T03:36:11;45.95;;;25.65;;
6356;SDS011;3211;53.452;-2.264;2022-12-16T03:38:42;44.65;;;25.00;;
6356;SDS011;3211;53.452;-2.264;2022-12-16T03:41:31;46.45;;;25.25;;
6356;SDS011;3211;53.452;-2.264;2022-12-16T03:43:58;47.22;;;24.33;;
6356;SDS011;3211;53.452;-2.264;2022-12-16T03:46:26;34.80;;;21.20;;
6356;SDS011;3211;53.452;-2.264;2022-12-16T03:48:54;33.88;;;18.80;;
6356;SDS011;3211;53.452;-2.264;2022-12-16T03:51:21;34.90;;;19.55;;
6356;SDS011;3211;53.452;-2.264;2022-12-16T03:53:48;35.03;;;19.92;;
6356;SDS011;3211;53.452;-2.264;2022-12-16T03:56:34;30.17;;;19.17;;
6356;SDS011;3211;53.452;-2.264;2022-12-16T03:59:01;34.95;;;19.70;;
6356;SDS011;3211;53.452;-2.264;2022-12-16T04:01:28;37.05;;;19.30;;
6356;SDS011;3211;53.452;-2.264;2022-12-16T04:03:59;33.88;;;18.60;;
6356;SDS011;3211;53.452;-2.264;2022-12-16T04:06:26;39.55;;;18.05;;
6356;SDS011;3211;53.452;-2.264;2022-12-16T04:08:53;39.03;;;19.45;;
6356;SDS011;3211;53.452;-2.264;2022-12-16T04:11:20;32.20;;;18.45;;
6356;SDS011;3211;53.452;-2.264;2022-12-16T04:14:06;34.72;;;17.38;;
6356;SDS011;3211;53.452;-2.264;2022-12-16T04:16:50;30.77;;;17.20;;
6356;SDS011;3211;53.452;-2.264;2022-12-16T04:19:36;32.22;;;17.20;;
6356;SDS011;3211;53.452;-2.264;2022-12-16T04:22:22;31.80;;;18.20;;
6356;SDS011;3211;53.452;-2.264;2022-12-16T04:25:09;37.15;;;17.63;;
6356;SDS011;3211;53.452;-2.264;2022-12-16T04:27:39;33.80;;;17.67;;
6356;SDS011;3211;53.452;-2.264;2022-12-16T04:30:11;37.17;;;17.33;;
6356;SDS011;3211;53.452;-2.264;2022-12-16T04:32:45;28.58;;;17.30;;
6356;SDS011;3211;53.452;-2.264;2022-12-16T04:35:31;27.77;;;16.48;;
6356;SDS011;3211;53.452;-2.264;2022-12-16T04:38:21;33.83;;;17.15;;
6356;SDS011;3211;53.452;-2.264;2022-12-16T04:41:06;28.92;;;16.92;;
6356;SDS011;3211;53.452;-2.264;2022-12-16T04:43:57;27.92;;;16.35;;
6356;SDS011;3211;53.452;-2.264;2022-12-16T04:46:42;27.05;;;16.27;;
6356;SDS011;3211;53.452;-2.264;2022-12-16T04:49:35;30.50;;;17.25;;
6356;SDS011;3211;53.452;-2.264;2022-12-16T04:52:21;26.63;;;15.50;;
6356;SDS011;3211;53.452;-2.264;2022-12-16T04:55:05;27.83;;;16.05;;
6356;SDS011;3211;53.452;-2.264;2022-12-16T04:57:51;31.50;;;16.67;;
6356;SDS011;3211;53.452;-2.264;2022-12-16T05:00:50;28.48;;;16.17;;
6356;SDS011;3211;53.452;-2.264;2022-12-16T05:03:35;29.20;;;16.05;;
6356;SDS011;3211;53.452;-2.264;2022-12-16T05:06:26;27.00;;;16.38;;
6356;SDS011;3211;53.452;-2.264;2022-12-16T05:09:11;33.83;;;16.00;;
6356;SDS011;3211;53.452;-2.264;2022-12-16T05:11:59;31.88;;;16.23;;
6356;SDS011;3211;53.452;-2.264;2022-12-16T05:14:43;25.30;;;16.35;;
6356;SDS011;3211;53.452;-2.264;2022-12-16T05:17:37;28.90;;;16.63;;
6356;SDS011;3211;53.452;-2.264;2022-12-16T05:20:21;28.65;;;16.98;;
6356;SDS011;3211;53.452;-2.264;2022-12-16T05:23:14;29.08;;;16.10;;
6356;SDS011;3211;53.452;-2.264;2022-12-16T05:26:00;33.13;;;17.05;;
6356;SDS011;3211;53.452;-2.264;2022-12-16T05:28:45;31.80;;;17.50;;
6356;SDS011;3211;53.452;-2.264;2022-12-16T05:31:29;27.92;;;15.90;;
6356;SDS011;3211;53.452;-2.264;2022-12-16T05:34:29;31.25;;;17.20;;
6356;SDS011;3211;53.452;-2.264;2022-12-16T05:37:14;31.77;;;16.25;;
6356;SDS011;3211;53.452;-2.264;2022-12-16T05:40:05;38.25;;;19.15;;
6356;SDS011;3211;53.452;-2.264;2022-12-16T05:42:52;29.45;;;16.83;;
6356;SDS011;3211;53.452;-2.264;2022-12-16T05:45:36;35.45;;;16.25;;
6356;SDS011;3211;53.452;-2.264;2022-12-16T05:48:22;26.90;;;16.58;;
6356;SDS011;3211;53.452;-2.264;2022-12-16T05:51:06;26.90;;;16.13;;
6356;SDS011;3211;53.452;-2.264;2022-12-16T05:53:51;26.55;;;15.07;;
6356;SDS011;3211;53.452;-2.264;2022-12-16T05:56:44;28.85;;;14.93;;
6356;SDS011;3211;53.452;-2.264;2022-12-16T05:59:29;26.75;;;14.43;;
6356;SDS011;3211;53.452;-2.264;2022-12-16T06:02:14;26.70;;;14.50;;
6356;SDS011;3211;53.452;-2.264;2022-12-16T06:04:58;25.02;;;14.40;;
6356;SDS011;3211;53.452;-2.264;2022-12-16T06:07:48;25.17;;;14.32;;
6356;SDS011;3211;53.452;-2.264;2022-12-16T06:10:33;29.33;;;14.27;;
6356;SDS011;3211;53.452;-2.264;2022-12-16T06:13:18;31.85;;;15.93;;
6356;SDS011;3211;53.452;-2.264;2022-12-16T06:16:04;24.10;;;14.90;;
6356;SDS011;3211;53.452;-2.264;2022-12-16T06:18:48;25.50;;;15.30;;
6356;SDS011;3211;53.452;-2.264;2022-12-16T06:21:33;26.58;;;14.35;;
6356;SDS011;3211;53.452;-2.264;2022-12-16T06:24:17;23.63;;;14.95;;
6356;SDS011;3211;53.452;-2.264;2022-12-16T06:27:09;28.15;;;14.45;;
6356;SDS011;3211;53.452;-2.264;2022-12-16T06:29:54;28.23;;;15.35;;
6356;SDS011;3211;53.452;-2.264;2022-12-16T06:32:40;22.48;;;13.07;;
6356;SDS011;3211;53.452;-2.264;2022-12-16T06:35:25;27.67;;;15.68;;
6356;SDS011;3211;53.452;-2.264;2022-12-16T06:38:09;25.52;;;13.77;;
6356;SDS011;3211;53.452;-2.264;2022-12-16T06:40:54;29.02;;;15.18;;
6356;SDS011;3211;53.452;-2.264;2022-12-16T06:43:39;25.60;;;14.90;;
6356;SDS011;3211;53.452;-2.264;2022-12-16T06:46:23;30.20;;;15.20;;
6356;SDS011;3211;53.452;-2.264;2022-12-16T06:49:08;29.20;;;14.13;;
6356;SDS011;3211;53.452;-2.264;2022-12-16T06:51:53;27.00;;;14.90;;
6356;SDS011;3211;53.452;-2.264;2022-12-16T06:54:37;21.58;;;14.07;;
6356;SDS011;3211;53.452;-2.264;2022-12-16T06:57:21;19.77;;;13.20;;
6356;SDS011;3211;53.452;-2.264;2022-12-16T07:00:20;22.33;;;12.25;;
6356;SDS011;3211;53.452;-2.264;2022-12-16T07:03:05;22.02;;;13.13;;
6356;SDS011;3211;53.452;-2.264;2022-12-16T07:05:52;24.38;;;13.45;;
6356;SDS011;3211;53.452;-2.264;2022-12-16T07:08:37;22.85;;;12.60;;
6356;SDS011;3211;53.452;-2.264;2022-12-16T07:11:21;72.70;;;32.70;;
6356;SDS011;3211;53.452;-2.264;2022-12-16T07:14:06;35.00;;;16.38;;
6356;SDS011;3211;53.452;-2.264;2022-12-16T07:16:50;24.75;;;15.55;;
6356;SDS011;3211;53.452;-2.264;2022-12-16T07:19:34;29.50;;;15.02;;
6356;SDS011;3211;53.452;-2.264;2022-12-16T07:22:20;35.53;;;16.75;;
6356;SDS011;3211;53.452;-2.264;2022-12-16T07:25:01;26.30;;;14.23;;
6356;SDS011;3211;53.452;-2.264;2022-12-16T07:27:45;28.23;;;15.75;;
6356;SDS011;3211;53.452;-2.264;2022-12-16T07:30:30;28.50;;;15.75;;
6356;SDS011;3211;53.452;-2.264;2022-12-16T07:33:14;26.00;;;15.27;;
6356;SDS011;3211;53.452;-2.264;2022-12-16T07:35:59;21.15;;;13.57;;
6356;SDS011;3211;53.452;-2.264;2022-12-16T07:38:45;28.25;;;14.38;;
6356;SDS011;3211;53.452;-2.264;2022-12-16T07:41:29;26.00;;;13.65;;
6356;SDS011;3211;53.452;-2.264;2022-12-16T07:44:14;19.92;;;13.20;;
6356;SDS011;3211;53.452;-2.264;2022-12-16T07:46:58;24.02;;;14.10;;
6356;SDS011;3211;53.452;-2.264;2022-12-16T07:49:42;19.55;;;12.45;;
6356;SDS011;3211;53.452;-2.264;2022-12-16T07:52:26;21.02;;;12.50;;
6356;SDS011;3211;53.452;-2.264;2022-12-16T07:55:12;21.25;;;12.45;;
6356;SDS011;3211;53.452;-2.264;2022-12-16T07:57:57;20.17;;;12.70;;
6356;SDS011;3211;53.452;-2.264;2022-12-16T08:00:41;25.55;;;12.40;;
6356;SDS011;3211;53.452;-2.264;2022-12-16T08:03:26;24.38;;;12.95;;
6356;SDS011;3211;53.452;-2.264;2022-12-16T08:06:10;22.23;;;13.55;;
6356;SDS011;3211;53.452;-2.264;2022-12-16T08:08:54;21.30;;;12.57;;
6356;SDS011;3211;53.452;-2.264;2022-12-16T08:11:40;23.38;;;12.32;;
6356;SDS011;3211;53.452;-2.264;2022-12-16T08:14:24;19.58;;;12.75;;
6356;SDS011;3211;53.452;-2.264;2022-12-16T08:17:08;25.33;;;13.30;;
6356;SDS011;3211;53.452;-2.264;2022-12-16T08:19:53;22.23;;;12.45;;
6356;SDS011;3211;53.452;-2.264;2022-12-16T08:22:39;20.40;;;11.35;;
6356;SDS011;3211;53.452;-2.264;2022-12-16T08:25:24;25.73;;;11.45;;
6356;SDS011;3211;53.452;-2.264;2022-12-16T08:28:09;22.35;;;13.55;;
6356;SDS011;3211;53.452;-2.264;2022-12-16T08:30:54;20.67;;;12.60;;
6356;SDS011;3211;53.452;-2.264;2022-12-16T08:33:38;23.40;;;12.07;;
6356;SDS011;3211;53.452;-2.264;2022-12-16T08:36:22;16.58;;;10.93;;
6356;SDS011;3211;53.452;-2.264;2022-12-16T08:39:06;20.08;;;11.02;;
6356;SDS011;3211;53.452;-2.264;2022-12-16T08:41:51;21.92;;;12.10;;
6356;SDS011;3211;53.452;-2.264;2022-12-16T08:44:36;20.55;;;10.70;;
6356;SDS011;3211;53.452;-2.264;2022-12-16T08:47:21;26.42;;;10.90;;
6356;SDS011;3211;53.452;-2.264;2022-12-16T08:50:06;21.88;;;12.60;;
6356;SDS011;3211;53.452;-2.264;2022-12-16T08:52:50;31.77;;;13.70;;
6356;SDS011;3211;53.452;-2.264;2022-12-16T08:55:35;25.77;;;14.65;;
6356;SDS011;3211;53.452;-2.264;2022-12-16T08:58:19;25.75;;;14.15;;
6356;SDS011;3211;53.452;-2.264;2022-12-16T09:01:05;23.55;;;14.40;;
6356;SDS011;3211;53.452;-2.264;2022-12-16T09:03:49;29.63;;;14.30;;
6356;SDS011;3211;53.452;-2.264;2022-12-16T09:06:34;46.92;;;15.82;;
6356;SDS011;3211;53.452;-2.264;2022-12-16T09:09:18;31.92;;;13.90;;
6356;SDS011;3211;53.452;-2.264;2022-12-16T09:12:02;32.63;;;14.13;;
6356;SDS011;3211;53.452;-2.264;2022-12-16T09:14:47;29.20;;;13.65;;
6356;SDS011;3211;53.452;-2.264;2022-12-16T09:17:32;26.55;;;14.23;;
6356;SDS011;3211;53.452;-2.264;2022-12-16T09:20:17;25.67;;;13.50;;
6356;SDS011;3211;53.452;-2.264;2022-12-16T09:23:01;24.55;;;14.52;;
6356;SDS011;3211;53.452;-2.264;2022-12-16T09:25:46;24.27;;;14.30;;
6356;SDS011;3211;53.452;-2.264;2022-12-16T09:28:30;28.85;;;14.82;;
6356;SDS011;3211;53.452;-2.264;2022-12-16T09:31:15;31.52;;;15.98;;
6356;SDS011;3211;53.452;-2.264;2022-12-16T09:34:02;21.92;;;13.80;;
6356;SDS011;3211;53.452;-2.264;2022-12-16T09:36:46;33.58;;;16.67;;
6356;SDS011;3211;53.452;-2.264;2022-12-16T09:39:30;28.83;;;15.88;;
6356;SDS011;3211;53.452;-2.264;2022-12-16T09:42:19;26.98;;;15.70;;
6356;SDS011;3211;53.452;-2.264;2022-12-16T09:45:17;26.63;;;15.35;;
6356;SDS011;3211;53.452;-2.264;2022-12-16T09:48:10;30.35;;;16.55;;
6356;SDS011;3211;53.452;-2.264;2022-12-16T09:51:00;34.85;;;17.98;;
6356;SDS011;3211;53.452;-2.264;2022-12-16T09:53:47;35.47;;;19.88;;
6356;SDS011;3211;53.452;-2.264;2022-12-16T09:56:34;33.15;;;19.73;;
6356;SDS011;3211;53.452;-2.264;2022-12-16T09:59:21;31.20;;;16.92;;
6356;SDS011;3211;53.452;-2.264;2022-12-16T10:02:10;33.50;;;18.75;;
6356;SDS011;3211;53.452;-2.264;2022-12-16T10:04:55;33.45;;;19.13;;
6356;SDS011;3211;53.452;-2.264;2022-12-16T10:07:41;40.95;;;19.48;;
6356;SDS011;3211;53.452;-2.264;2022-12-16T10:10:32;31.63;;;19.77;;
6356;SDS011;3211;53.452;-2.264;2022-12-16T10:13:24;32.55;;;19.80;;
6356;SDS011;3211;53.452;-2.264;2022-12-16T10:16:18;35.38;;;20.20;;
6356;SDS011;3211;53.452;-2.264;2022-12-16T10:19:10;37.97;;;21.35;;
6356;SDS011;3211;53.452;-2.264;2022-12-16T10:22:06;37.53;;;19.73;;
6356;SDS011;3211;53.452;-2.264;2022-12-16T10:24:59;38.15;;;20.35;;
6356;SDS011;3211;53.452;-2.264;2022-12-16T10:27:56;28.48;;;18.00;;
6356;SDS011;3211;53.452;-2.264;2022-12-16T10:30:48;30.83;;;17.85;;
6356;SDS011;3211;53.452;-2.264;2022-12-16T10:33:33;36.78;;;18.05;;
6356;SDS011;3211;53.452;-2.264;2022-12-16T10:36:19;28.35;;;17.05;;
6356;SDS011;3211;53.452;-2.264;2022-12-16T10:39:08;24.58;;;16.27;;
6356;SDS011;3211;53.452;-2.264;2022-12-16T10:42:07;28.90;;;16.63;;
6356;SDS011;3211;53.452;-2.264;2022-12-16T10:45:00;28.33;;;15.35;;
6356;SDS011;3211;53.452;-2.264;2022-12-16T10:47:46;26.20;;;15.00;;
6356;SDS011;3211;53.452;-2.264;2022-12-16T10:50:30;26.52;;;14.02;;
6356;SDS011;3211;53.452;-2.264;2022-12-16T10:53:15;27.67;;;16.48;;
6356;SDS011;3211;53.452;-2.264;2022-12-16T10:56:02;28.30;;;14.70;;
6356;SDS011;3211;53.452;-2.264;2022-12-16T10:59:03;22.42;;;14.55;;
6356;SDS011;3211;53.452;-2.264;2022-12-16T11:01:55;28.05;;;15.05;;
6356;SDS011;3211;53.452;-2.264;2022-12-16T11:04:40;29.48;;;15.55;;
6356;SDS011;3211;53.452;-2.264;2022-12-16T11:07:25;26.00;;;13.48;;
6356;SDS011;3211;53.452;-2.264;2022-12-16T11:10:27;19.05;;;12.85;;
6356;SDS011;3211;53.452;-2.264;2022-12-16T11:13:19;17.48;;;10.90;;
6356;SDS011;3211;53.452;-2.264;2022-12-16T11:16:22;22.70;;;10.80;;
6356;SDS011;3211;53.452;-2.264;2022-12-16T11:19:23;14.13;;;9.98;;
6356;SDS011;3211;53.452;-2.264;2022-12-16T11:22:26;16.05;;;10.73;;
6356;SDS011;3211;53.452;-2.264;2022-12-16T11:25:26;19.10;;;10.60;;
6356;SDS011;3211;53.452;-2.264;2022-12-16T11:28:26;15.85;;;10.10;;
6356;SDS011;3211;53.452;-2.264;2022-12-16T11:31:26;16.50;;;11.00;;
6356;SDS011;3211;53.452;-2.264;2022-12-16T11:34:34;21.40;;;10.93;;
6356;SDS011;3211;53.452;-2.264;2022-12-16T11:37:34;16.38;;;10.88;;
6356;SDS011;3211;53.452;-2.264;2022-12-16T11:40:22;22.83;;;10.82;;
6356;SDS011;3211;53.452;-2.264;2022-12-16T11:43:07;15.70;;;10.52;;
6356;SDS011;3211;53.452;-2.264;2022-12-16T11:45:55;15.63;;;9.52;;
6356;SDS011;3211;53.452;-2.264;2022-12-16T11:48:43;14.57;;;9.95;;
6356;SDS011;3211;53.452;-2.264;2022-12-16T11:51:32;21.15;;;9.70;;
6356;SDS011;3211;53.452;-2.264;2022-12-16T11:54:20;11.38;;;8.65;;
6356;SDS011;3211;53.452;-2.264;2022-12-16T11:57:14;13.15;;;8.32;;
6356;SDS011;3211;53.452;-2.264;2022-12-16T12:00:02;10.80;;;7.47;;
6356;SDS011;3211;53.452;-2.264;2022-12-16T12:02:50;11.38;;;7.35;;
6356;SDS011;3211;53.452;-2.264;2022-12-16T12:05:42;15.57;;;8.30;;
6356;SDS011;3211;53.452;-2.264;2022-12-16T12:08:37;13.23;;;7.75;;
6356;SDS011;3211;53.452;-2.264;2022-12-16T12:11:29;15.80;;;8.73;;
6356;SDS011;3211;53.452;-2.264;2022-12-16T12:14:19;15.50;;;8.20;;
6356;SDS011;3211;53.452;-2.264;2022-12-16T12:17:16;14.13;;;8.30;;
6356;SDS011;3211;53.452;-2.264;2022-12-16T12:20:23;16.90;;;8.93;;
6356;SDS011;3211;53.452;-2.264;2022-12-16T12:23:29;13.30;;;8.93;;
6356;SDS011;3211;53.452;-2.264;2022-12-16T12:26:21;22.60;;;9.20;;
6356;SDS011;3211;53.452;-2.264;2022-12-16T12:29:11;15.63;;;10.33;;
6356;SDS011;3211;53.452;-2.264;2022-12-16T12:32:11;16.40;;;8.47;;
6356;SDS011;3211;53.452;-2.264;2022-12-16T12:35:02;13.37;;;8.80;;
6356;SDS011;3211;53.452;-2.264;2022-12-16T12:37:56;14.13;;;8.77;;
6356;SDS011;3211;53.452;-2.264;2022-12-16T12:40:49;19.53;;;9.27;;
6356;SDS011;3211;53.452;-2.264;2022-12-16T12:43:43;17.03;;;10.10;;
6356;SDS011;3211;53.452;-2.264;2022-12-16T12:46:36;17.70;;;10.00;;
6356;SDS011;3211;53.452;-2.264;2022-12-16T12:49:28;15.83;;;9.67;;
6356;SDS011;3211;53.452;-2.264;2022-12-16T12:52:49;13.53;;;8.63;;
6356;SDS011;3211;53.452;-2.264;2022-12-16T12:55:48;21.73;;;8.80;;
6356;SDS011;3211;53.452;-2.264;2022-12-16T12:58:43;14.40;;;9.53;;
6356;SDS011;3211;53.452;-2.264;2022-12-16T13:01:29;12.40;;;9.20;;
6356;SDS011;3211;53.452;-2.264;2022-12-16T13:04:17;15.57;;;9.80;;
6356;SDS011;3211;53.452;-2.264;2022-12-16T13:07:04;17.03;;;10.13;;
6356;SDS011;3211;53.452;-2.264;2022-12-16T13:19:53;16.73;;;10.33;;
6356;SDS011;3211;53.452;-2.264;2022-12-16T13:22:39;13.43;;;9.13;;
6356;SDS011;3211;53.452;-2.264;2022-12-16T13:28:34;14.03;;;7.73;;
6356;SDS011;3211;53.452;-2.264;2022-12-16T13:31:20;12.90;;;8.93;;
6356;SDS011;3211;53.452;-2.264;2022-12-16T13:34:20;35.93;;;17.60;;
6356;SDS011;3211;53.452;-2.264;2022-12-16T13:37:17;25.17;;;11.73;;
6356;SDS011;3211;53.452;-2.264;2022-12-16T13:40:18;19.33;;;10.50;;
6356;SDS011;3211;53.452;-2.264;2022-12-16T13:46:37;15.73;;;9.17;;
6356;SDS011;3211;53.452;-2.264;2022-12-16T13:49:40;13.60;;;9.57;;
6356;SDS011;3211;53.452;-2.264;2022-12-16T13:52:31;17.50;;;9.90;;
6356;SDS011;3211;53.452;-2.264;2022-12-16T13:55:25;13.30;;;8.30;;
6356;SDS011;3211;53.452;-2.264;2022-12-16T13:58:16;14.70;;;8.13;;
6356;SDS011;3211;53.452;-2.264;2022-12-16T14:01:17;10.60;;;7.90;;
6356;SDS011;3211;53.452;-2.264;2022-12-16T14:04:07;9.70;;;7.53;;
6356;SDS011;3211;53.452;-2.264;2022-12-16T14:06:54;11.00;;;7.40;;
6356;SDS011;3211;53.452;-2.264;2022-12-16T14:09:49;13.83;;;8.30;;
6356;SDS011;3211;53.452;-2.264;2022-12-16T14:12:39;12.73;;;8.40;;
6356;SDS011;3211;53.452;-2.264;2022-12-16T14:15:32;15.23;;;9.43;;
6356;SDS011;3211;53.452;-2.264;2022-12-16T14:18:26;19.70;;;10.20;;
6356;SDS011;3211;53.452;-2.264;2022-12-16T14:21:20;14.30;;;9.40;;
6356;SDS011;3211;53.452;-2.264;2022-12-16T14:24:16;14.00;;;10.30;;
6356;SDS011;3211;53.452;-2.264;2022-12-16T14:27:10;19.90;;;9.40;;
6356;SDS011;3211;53.452;-2.264;2022-12-16T14:29:56;17.00;;;10.23;;
6356;SDS011;3211;53.452;-2.264;2022-12-16T14:32:41;19.10;;;8.63;;
6356;SDS011;3211;53.452;-2.264;2022-12-16T14:35:26;16.70;;;9.23;;
6356;SDS011;3211;53.452;-2.264;2022-12-16T14:38:13;16.30;;;10.50;;
6356;SDS011;3211;53.452;-2.264;2022-12-16T14:41:04;18.73;;;10.43;;
6356;SDS011;3211;53.452;-2.264;2022-12-16T14:43:51;12.90;;;9.10;;
6356;SDS011;3211;53.452;-2.264;2022-12-16T14:46:36;14.47;;;9.60;;
6356;SDS011;3211;53.452;-2.264;2022-12-16T14:49:20;15.20;;;9.70;;
6356;SDS011;3211;53.452;-2.264;2022-12-16T14:52:17;17.53;;;9.23;;
6356;SDS011;3211;53.452;-2.264;2022-12-16T14:55:13;13.63;;;8.53;;
6356;SDS011;3211;53.452;-2.264;2022-12-16T14:58:07;16.43;;;8.90;;
6356;SDS011;3211;53.452;-2.264;2022-12-16T15:00:54;15.00;;;8.57;;
6356;SDS011;3211;53.452;-2.264;2022-12-16T15:03:56;14.07;;;9.50;;
6356;SDS011;3211;53.452;-2.264;2022-12-16T15:06:42;12.23;;;8.80;;
6356;SDS011;3211;53.452;-2.264;2022-12-16T15:09:31;10.87;;;8.40;;
6356;SDS011;3211;53.452;-2.264;2022-12-16T15:12:21;20.50;;;10.50;;
6356;SDS011;3211;53.452;-2.264;2022-12-16T15:15:09;19.73;;;8.37;;
6356;SDS011;3211;53.452;-2.264;2022-12-16T15:17:59;12.57;;;9.50;;
6356;SDS011;3211;53.452;-2.264;2022-12-16T15:20:47;12.30;;;9.00;;
6356;SDS011;3211;53.452;-2.264;2022-12-16T15:23:37;14.67;;;10.50;;
6356;SDS011;3211;53.452;-2.264;2022-12-16T15:26:24;16.60;;;10.50;;
6356;SDS011;3211;53.452;-2.264;2022-12-16T15:29:24;16.73;;;8.70;;
6356;SDS011;3211;53.452;-2.264;2022-12-16T15:32:29;13.20;;;9.33;;
6356;SDS011;3211;53.452;-2.264;2022-12-16T15:35:26;12.80;;;8.07;;
6356;SDS011;3211;53.452;-2.264;2022-12-16T15:38:17;14.97;;;9.00;;
6356;SDS011;3211;53.452;-2.264;2022-12-16T15:41:13;16.43;;;9.30;;
6356;SDS011;3211;53.452;-2.264;2022-12-16T15:44:04;13.40;;;8.80;;
6356;SDS011;3211;53.452;-2.264;2022-12-16T15:46:48;19.10;;;9.93;;
6356;SDS011;3211;53.452;-2.264;2022-12-16T15:49:33;15.47;;;10.50;;
6356;SDS011;3211;53.452;-2.264;2022-12-16T15:52:25;13.47;;;8.77;;
6356;SDS011;3211;53.452;-2.264;2022-12-16T15:55:22;13.23;;;9.43;;
6356;SDS011;3211;53.452;-2.264;2022-12-16T15:58:13;13.70;;;11.10;;
6356;SDS011;3211;53.452;-2.264;2022-12-16T16:01:01;19.07;;;10.53;;
6356;SDS011;3211;53.452;-2.264;2022-12-16T16:03:48;17.47;;;10.67;;
6356;SDS011;3211;53.452;-2.264;2022-12-16T16:06:34;17.25;;;11.07;;
6356;SDS011;3211;53.452;-2.264;2022-12-16T16:09:24;16.00;;;10.40;;
6356;SDS011;3211;53.452;-2.264;2022-12-16T16:12:10;24.20;;;14.33;;
6356;SDS011;3211;53.452;-2.264;2022-12-16T16:14:55;24.70;;;13.60;;
6356;SDS011;3211;53.452;-2.264;2022-12-16T16:17:40;22.90;;;14.63;;
6356;SDS011;3211;53.452;-2.264;2022-12-16T16:20:33;24.00;;;15.33;;
6356;SDS011;3211;53.452;-2.264;2022-12-16T16:23:17;24.80;;;16.47;;
6356;SDS011;3211;53.452;-2.264;2022-12-16T16:26:03;29.00;;;15.40;;
6356;SDS011;3211;53.452;-2.264;2022-12-16T16:28:48;28.70;;;15.30;;
6356;SDS011;3211;53.452;-2.264;2022-12-16T16:31:32;21.57;;;14.10;;